Time;durP1;ratioP1;P1;durP2;ratioP2;P2;SDS_P1;SDS_P2;PMS_P1;PMS_P2;Temp;Humidity;BMP_temperature;BMP_pressure;BME280_temperature;BME280_humidity;BME280_pressure;Samples;Min_cycle;Max_cycle;Signal;HPM_P1;HPM_P2
2022/04/20 00:01:47;;;;;;;0.85;0.30;;;;;;;;;;5054792;28;20021;-74
2022/04/20 00:04:14;;;;;;;1.85;0.50;;;;;;;;;;5054779;28;20021;-74
2022/04/20 00:06:42;;;;;;;1.05;0.20;;;;;;;;;;5054717;28;20033;-74
2022/04/20 00:09:09;;;;;;;0.38;0.20;;;;;;;;;;5053167;28;20436;-74
2022/04/20 00:11:36;;;;;;;2.17;0.30;;;;;;;;;;5054566;28;20025;-76
2022/04/20 00:14:03;;;;;;;0.40;0.20;;;;;;;;;;5054597;28;20025;-73
2022/04/20 00:16:30;;;;;;;0.35;0.30;;;;;;;;;;5054206;28;20061;-73
2022/04/20 00:18:57;;;;;;;0.45;0.10;;;;;;;;;;5054433;28;20082;-74
2022/04/20 00:21:25;;;;;;;0.20;0.20;;;;;;;;;;5053048;28;20032;-73
2022/04/20 00:23:52;;;;;;;0.93;0.40;;;;;;;;;;5052949;28;20485;-74
2022/04/20 00:26:19;;;;;;;0.88;0.25;;;;;;;;;;5054334;28;20102;-74
2022/04/20 00:28:46;;;;;;;1.13;0.13;;;;;;;;;;5054388;28;20489;-73
2022/04/20 00:31:13;;;;;;;0.50;0.17;;;;;;;;;;5054132;28;20013;-73
2022/04/20 00:33:40;;;;;;;0.50;0.20;;;;;;;;;;5054140;28;20485;-72
2022/04/20 00:36:09;;;;;;;0.68;0.20;;;;;;;;;;5054163;28;20095;-73
2022/04/20 00:38:36;;;;;;;0.75;0.20;;;;;;;;;;5053942;28;20103;-73
2022/04/20 00:41:03;;;;;;;0.68;0.30;;;;;;;;;;5052678;28;20024;-73
2022/04/20 00:43:31;;;;;;;1.15;0.15;;;;;;;;;;5052710;28;20025;-73
2022/04/20 00:45:59;;;;;;;0.90;0.20;;;;;;;;;;5052677;28;20107;-73
2022/04/20 00:48:26;;;;;;;1.02;0.28;;;;;;;;;;5053726;28;20072;-73
2022/04/20 00:50:53;;;;;;;1.48;0.40;;;;;;;;;;5053799;28;20021;-73
2022/04/20 00:53:20;;;;;;;0.75;0.30;;;;;;;;;;5053760;28;20053;-72
2022/04/20 00:55:48;;;;;;;0.65;0.20;;;;;;;;;;5053690;28;20397;-72
2022/04/20 00:58:15;;;;;;;0.80;0.30;;;;;;;;;;5052280;28;20079;-73
2022/04/20 01:00:42;;;;;;;1.65;0.20;;;;;;;;;;5053822;28;20021;-73
2022/04/20 01:03:09;;;;;;;1.23;0.38;;;;;;;;;;5053737;28;20017;-72
2022/04/20 01:05:37;;;;;;;0.43;0.40;;;;;;;;;;5053631;28;20021;-73
2022/04/20 01:08:04;;;;;;;1.42;0.20;;;;;;;;;;5053548;28;20036;-73
2022/04/20 01:10:32;;;;;;;0.45;0.22;;;;;;;;;;5051940;28;20025;-73
2022/04/20 01:12:59;;;;;;;1.40;0.30;;;;;;;;;;5051989;28;20025;-73
2022/04/20 01:15:26;;;;;;;0.38;0.20;;;;;;;;;;5053457;28;20394;-73
2022/04/20 01:17:54;;;;;;;1.75;0.75;;;;;;;;;;5051917;28;20110;-73
2022/04/20 01:20:21;;;;;;;0.70;0.30;;;;;;;;;;5053330;28;20033;-73
2022/04/20 01:22:48;;;;;;;1.25;0.22;;;;;;;;;;5053136;28;20025;-72
2022/04/20 01:25:15;;;;;;;0.68;0.20;;;;;;;;;;5053194;28;20096;-73
2022/04/20 01:27:42;;;;;;;1.52;0.30;;;;;;;;;;5053091;28;20400;-73
2022/04/20 01:30:09;;;;;;;0.50;0.20;;;;;;;;;;5051840;28;20111;-73
2022/04/20 01:32:37;;;;;;;0.75;0.30;;;;;;;;;;5053109;28;20025;-73
2022/04/20 01:35:04;;;;;;;0.15;0.10;;;;;;;;;;5052840;28;20025;-73
2022/04/20 01:37:31;;;;;;;0.70;0.20;;;;;;;;;;5051520;28;20539;-73
2022/04/20 01:39:58;;;;;;;1.27;0.20;;;;;;;;;;5052648;28;20021;-73
2022/04/20 01:42:25;;;;;;;0.90;0.22;;;;;;;;;;5050885;28;20044;-74
2022/04/20 01:44:53;;;;;;;0.63;0.32;;;;;;;;;;5052672;28;20025;-73
2022/04/20 01:47:20;;;;;;;0.25;0.10;;;;;;;;;;5051313;28;20029;-73
2022/04/20 01:49:47;;;;;;;1.38;0.10;;;;;;;;;;5052856;28;20040;-74
2022/04/20 01:52:14;;;;;;;2.10;0.47;;;;;;;;;;5051411;28;20041;-73
2022/04/20 01:54:41;;;;;;;1.05;0.17;;;;;;;;;;5052695;28;20460;-74
2022/04/20 01:57:08;;;;;;;2.50;0.20;;;;;;;;;;5052640;28;20028;-74
2022/04/20 01:59:35;;;;;;;0.60;0.28;;;;;;;;;;5051212;28;20021;-73
2022/04/20 02:04:48;;;;;;;0.43;0.10;;;;;;;;;;5052759;28;20032;-73
2022/04/20 02:07:15;;;;;;;0.95;0.30;;;;;;;;;;5052448;28;20025;-73
2022/04/20 02:09:42;;;;;;;0.57;0.20;;;;;;;;;;5052259;28;20078;-73
2022/04/20 02:12:09;;;;;;;1.40;0.50;;;;;;;;;;5052381;28;20024;-74
2022/04/20 02:14:36;;;;;;;0.20;0.20;;;;;;;;;;5052213;28;20028;-73
2022/04/20 02:17:05;;;;;;;1.25;0.20;;;;;;;;;;5051011;28;20021;-73
2022/04/20 02:19:32;;;;;;;0.38;0.10;;;;;;;;;;5052169;28;20091;-73
2022/04/20 02:21:59;;;;;;;0.25;0.20;;;;;;;;;;5052302;28;20028;-73
2022/04/20 02:24:26;;;;;;;1.05;0.28;;;;;;;;;;5052214;28;20118;-74
2022/04/20 02:26:53;;;;;;;0.75;0.10;;;;;;;;;;5052331;28;20020;-73
2022/04/20 02:29:20;;;;;;;0.40;0.28;;;;;;;;;;5052193;28;20033;-73
2022/04/20 02:31:47;;;;;;;0.95;0.20;;;;;;;;;;5050801;28;20503;-73
2022/04/20 02:34:15;;;;;;;1.27;0.20;;;;;;;;;;5052062;28;20096;-73
2022/04/20 02:36:42;;;;;;;0.30;0.10;;;;;;;;;;5051924;28;20025;-73
2022/04/20 02:39:09;;;;;;;0.40;0.10;;;;;;;;;;5052106;28;20180;-73
2022/04/20 02:41:38;;;;;;;0.93;0.28;;;;;;;;;;5051810;28;20047;-74
2022/04/20 02:44:05;;;;;;;1.38;0.28;;;;;;;;;;5050487;28;20022;-73
2022/04/20 02:46:33;;;;;;;0.28;0.10;;;;;;;;;;5050451;28;20017;-74
2022/04/20 02:49:00;;;;;;;0.20;0.13;;;;;;;;;;5050495;28;20132;-74
2022/04/20 02:51:27;;;;;;;1.35;0.20;;;;;;;;;;5051847;28;20462;-74
2022/04/20 02:53:54;;;;;;;1.90;0.68;;;;;;;;;;5051913;28;20088;-73
2022/04/20 02:56:22;;;;;;;1.10;0.22;;;;;;;;;;5053992;28;20021;-72
2022/04/20 02:58:50;;;;;;;0.03;0.00;;;;;;;;;;5056054;28;20564;-73
2022/04/20 03:01:17;;;;;;;1.15;0.20;;;;;;;;;;5054602;28;20378;-73
2022/04/20 03:03:45;;;;;;;2.88;0.40;;;;;;;;;;5055938;28;20035;-74
2022/04/20 03:06:12;;;;;;;0.20;0.10;;;;;;;;;;5055847;28;20044;-73
2022/04/20 03:08:39;;;;;;;1.27;0.38;;;;;;;;;;5054478;28;20029;-74
2022/04/20 03:11:06;;;;;;;0.13;0.00;;;;;;;;;;5055666;28;20449;-73
2022/04/20 03:13:33;;;;;;;0.30;0.10;;;;;;;;;;5055677;28;20051;-74
2022/04/20 03:16:01;;;;;;;1.15;0.20;;;;;;;;;;5055579;28;20474;-74
2022/04/20 03:18:32;;;;;;;0.68;0.00;;;;;;;;;;5054298;28;20032;-73
2022/04/20 03:21:02;;;;;;;0.30;0.20;;;;;;;;;;5054356;28;20120;-74
2022/04/20 03:23:30;;;;;;;0.15;0.10;;;;;;;;;;5055512;28;20020;-74
2022/04/20 03:25:57;;;;;;;0.55;0.10;;;;;;;;;;5055388;28;20020;-74
2022/04/20 03:28:25;;;;;;;0.10;0.00;;;;;;;;;;5054097;28;20048;-73
2022/04/20 03:30:52;;;;;;;1.23;0.30;;;;;;;;;;5054043;28;20028;-74
2022/04/20 03:33:19;;;;;;;0.85;0.28;;;;;;;;;;5055317;28;20025;-74
2022/04/20 03:35:47;;;;;;;1.38;0.20;;;;;;;;;;5055462;28;20500;-74
2022/04/20 03:38:14;;;;;;;0.88;0.13;;;;;;;;;;5053852;28;20052;-74
2022/04/20 03:40:41;;;;;;;0.45;0.10;;;;;;;;;;5055322;28;20017;-74
2022/04/20 03:43:08;;;;;;;1.05;0.20;;;;;;;;;;5055195;28;20017;-74
2022/04/20 03:45:35;;;;;;;1.13;0.20;;;;;;;;;;5053817;28;20021;-74
2022/04/20 03:48:04;;;;;;;0.70;0.50;;;;;;;;;;5054625;28;20084;-73
2022/04/20 03:50:32;;;;;;;0.52;0.20;;;;;;;;;;5052604;28;20075;-74
2022/04/20 03:52:59;;;;;;;0.40;0.13;;;;;;;;;;5052316;28;20112;-74
2022/04/20 03:55:27;;;;;;;1.23;0.40;;;;;;;;;;5053801;28;20028;-73
2022/04/20 03:57:54;;;;;;;1.42;0.20;;;;;;;;;;5053620;28;20029;-74
2022/04/20 04:00:23;;;;;;;2.17;0.25;;;;;;;;;;5053806;28;20017;-74
2022/04/20 04:02:51;;;;;;;0.90;0.40;;;;;;;;;;5053655;28;20021;-73
2022/04/20 04:05:18;;;;;;;0.40;0.25;;;;;;;;;;5053394;28;20025;-74
2022/04/20 04:07:45;;;;;;;0.32;0.10;;;;;;;;;;5052361;28;20029;-74
2022/04/20 04:10:12;;;;;;;2.03;0.30;;;;;;;;;;5053452;28;20025;-74
2022/04/20 04:12:40;;;;;;;1.00;0.10;;;;;;;;;;5053492;28;20412;-74
2022/04/20 04:15:07;;;;;;;0.32;0.17;;;;;;;;;;5053637;28;20151;-73
2022/04/20 04:17:34;;;;;;;1.13;0.13;;;;;;;;;;5053417;28;20104;-74
2022/04/20 04:20:02;;;;;;;1.08;0.28;;;;;;;;;;5053546;28;20017;-73
2022/04/20 04:22:29;;;;;;;1.50;0.10;;;;;;;;;;5052229;28;20036;-73
2022/04/20 04:24:57;;;;;;;0.68;0.20;;;;;;;;;;5052172;28;20028;-74
2022/04/20 04:27:24;;;;;;;0.98;0.30;;;;;;;;;;5053453;28;20021;-73
2022/04/20 04:29:51;;;;;;;0.15;0.10;;;;;;;;;;5052016;28;20025;-74
2022/04/20 04:32:18;;;;;;;1.15;0.20;;;;;;;;;;5053465;28;20071;-73
2022/04/20 04:34:45;;;;;;;0.60;0.20;;;;;;;;;;5053172;28;20029;-73
2022/04/20 04:37:14;;;;;;;0.45;0.20;;;;;;;;;;5053178;28;20025;-74
2022/04/20 04:39:41;;;;;;;0.50;0.20;;;;;;;;;;5053178;28;20025;-75
2022/04/20 04:42:09;;;;;;;0.80;0.20;;;;;;;;;;5053493;28;20025;-74
2022/04/20 04:44:36;;;;;;;0.70;0.20;;;;;;;;;;5053053;28;20017;-74
2022/04/20 04:49:49;;;;;;;0.47;0.08;;;;;;;;;;5126059;27;20365;-75
2022/04/20 04:52:16;;;;;;;8.60;0.70;;;;;;;;;;5108906;28;20480;-75
2022/04/20 04:54:43;;;;;;;0.30;0.20;;;;;;;;;;5108767;28;20023;-74
2022/04/20 04:57:12;;;;;;;1.08;0.30;;;;;;;;;;5110094;28;20047;-74
2022/04/20 04:59:39;;;;;;;3.83;0.50;;;;;;;;;;5108723;28;20032;-74
2022/04/20 05:02:07;;;;;;;1.58;0.40;;;;;;;;;;5110087;28;20484;-74
2022/04/20 05:04:38;;;;;;;1.73;0.43;;;;;;;;;;5109860;28;20050;-74
2022/04/20 05:07:05;;;;;;;0.15;0.08;;;;;;;;;;5110031;28;20348;-74
2022/04/20 05:09:32;;;;;;;1.40;0.20;;;;;;;;;;5108401;28;20053;-74
2022/04/20 05:12:01;;;;;;;2.70;0.30;;;;;;;;;;5109963;28;20468;-74
2022/04/20 05:14:28;;;;;;;0.28;0.10;;;;;;;;;;5108337;28;20111;-74
2022/04/20 05:16:56;;;;;;;1.95;0.20;;;;;;;;;;5108461;28;20106;-74
2022/04/20 05:19:23;;;;;;;0.73;0.20;;;;;;;;;;5109664;28;20023;-74
2022/04/20 05:21:50;;;;;;;0.45;0.22;;;;;;;;;;5108368;28;20115;-74
2022/04/20 05:24:18;;;;;;;0.47;0.25;;;;;;;;;;5109409;28;20023;-74
2022/04/20 05:26:45;;;;;;;0.60;0.40;;;;;;;;;;5109614;28;20027;-74
2022/04/20 05:29:12;;;;;;;1.10;0.30;;;;;;;;;;5109695;28;20400;-74
2022/04/20 05:31:39;;;;;;;1.30;0.40;;;;;;;;;;5109388;28;20024;-74
2022/04/20 05:34:06;;;;;;;1.13;0.30;;;;;;;;;;5109298;28;20365;-75
2022/04/20 05:41:39;;;;;;;0.93;0.40;;;;;;;;;;5109311;28;20102;-74
2022/04/20 05:42:05;;;;;;;1.00;0.47;;;;;;;;;;5109367;28;20035;-75
2022/04/20 05:44:33;;;;;;;0.45;0.40;;;;;;;;;;5109197;28;20032;-74
2022/04/20 05:47:00;;;;;;;0.65;0.25;;;;;;;;;;5109166;28;20096;-75
2022/04/20 05:49:28;;;;;;;1.95;0.30;;;;;;;;;;5108895;28;20074;-74
2022/04/20 05:51:55;;;;;;;0.10;0.10;;;;;;;;;;5109107;28;20023;-75
2022/04/20 05:54:23;;;;;;;0.25;0.20;;;;;;;;;;5108965;28;20422;-75
2022/04/20 05:56:51;;;;;;;1.48;0.30;;;;;;;;;;5108897;28;20023;-75
2022/04/20 05:59:18;;;;;;;0.40;0.30;;;;;;;;;;5106085;28;20072;-74
2022/04/20 06:01:45;;;;;;;0.68;0.30;;;;;;;;;;5095327;28;20113;-74
2022/04/20 06:04:12;;;;;;;1.20;0.55;;;;;;;;;;5095074;28;20043;-74
2022/04/20 06:06:39;;;;;;;1.50;0.80;;;;;;;;;;5095057;28;20059;-75
2022/04/20 06:09:06;;;;;;;0.70;0.40;;;;;;;;;;5095132;28;20028;-75
2022/04/20 06:11:34;;;;;;;1.17;0.50;;;;;;;;;;5095024;28;20032;-75
2022/04/20 06:14:01;;;;;;;0.40;0.30;;;;;;;;;;5095075;28;20016;-75
2022/04/20 06:16:28;;;;;;;1.45;0.20;;;;;;;;;;5093608;28;20077;-75
2022/04/20 06:18:58;;;;;;;0.50;0.30;;;;;;;;;;5093752;28;20047;-75
2022/04/20 06:21:25;;;;;;;;;;;;;;;;;;5095406;28;20388;-75
2022/04/20 06:23:52;;;;;;;1.05;0.20;;;;;;;;;;5094828;28;19908;-75
2022/04/20 06:26:19;;;;;;;1.27;0.22;;;;;;;;;;5094748;28;20084;-75
2022/04/20 06:28:46;;;;;;;0.52;0.40;;;;;;;;;;5094794;28;20023;-75
2022/04/20 06:31:14;;;;;;;1.67;0.50;;;;;;;;;;5094694;28;20047;-75
2022/04/20 06:33:41;;;;;;;1.48;0.40;;;;;;;;;;5094566;28;20031;-76
2022/04/20 06:36:08;;;;;;;0.50;0.30;;;;;;;;;;5094476;28;20031;-75
2022/04/20 06:38:35;;;;;;;0.73;0.52;;;;;;;;;;5094312;28;20024;-75
2022/04/20 06:41:02;;;;;;;0.77;0.50;;;;;;;;;;5092826;28;20088;-75
2022/04/20 06:43:29;;;;;;;1.25;0.40;;;;;;;;;;5094439;28;20039;-75
2022/04/20 06:45:57;;;;;;;1.05;0.50;;;;;;;;;;5094480;28;20028;-75
2022/04/20 06:48:25;;;;;;;0.50;0.40;;;;;;;;;;5094150;28;20048;-74
2022/04/20 06:50:52;;;;;;;1.83;0.77;;;;;;;;;;5093016;28;20538;-74
2022/04/20 06:58:50;;;;;;;1.05;0.35;;;;;;;;;;5094195;28;20442;-72
2022/04/20 07:01:17;;;;;;;0.95;0.52;;;;;;;;;;5092441;28;20111;-74
2022/04/20 07:03:45;;;;;;;1.02;0.40;;;;;;;;;;5094046;28;20097;-73
2022/04/20 07:06:12;;;;;;;1.25;0.60;;;;;;;;;;5094063;28;20055;-74
2022/04/20 07:08:39;;;;;;;0.93;0.35;;;;;;;;;;5093866;28;20126;-74
2022/04/20 07:11:06;;;;;;;1.92;0.50;;;;;;;;;;5091945;28;20166;-74
2022/04/20 07:13:34;;;;;;;0.82;0.60;;;;;;;;;;5092391;28;20020;-74
2022/04/20 07:16:01;;;;;;;1.17;0.40;;;;;;;;;;5093862;28;20016;-74
2022/04/20 07:18:28;;;;;;;2.95;0.52;;;;;;;;;;5092518;28;20031;-74
2022/04/20 07:20:55;;;;;;;0.85;0.30;;;;;;;;;;5093859;28;20051;-74
2022/04/20 07:23:23;;;;;;;0.90;0.50;;;;;;;;;;5092277;28;20024;-74
2022/04/20 07:25:50;;;;;;;1.50;0.65;;;;;;;;;;5092472;28;20115;-74
2022/04/20 07:28:17;;;;;;;1.38;0.68;;;;;;;;;;5092179;28;20020;-74
2022/04/20 07:30:44;;;;;;;1.27;0.70;;;;;;;;;;5093645;28;20472;-74
2022/04/20 07:33:14;;;;;;;2.25;0.80;;;;;;;;;;5093482;28;20077;-74
2022/04/20 07:35:41;;;;;;;1.67;0.50;;;;;;;;;;5093625;28;20043;-74
2022/04/20 07:38:08;;;;;;;1.77;1.00;;;;;;;;;;5091950;28;20024;-74
2022/04/20 07:40:36;;;;;;;1.80;0.80;;;;;;;;;;5092072;28;20028;-73
2022/04/20 07:43:03;;;;;;;1.67;0.80;;;;;;;;;;5093230;28;20053;-74
2022/04/20 07:45:30;;;;;;;2.58;0.90;;;;;;;;;;5091909;28;20028;-73
2022/04/20 07:47:58;;;;;;;3.05;0.90;;;;;;;;;;5092800;28;20064;-75
2022/04/20 07:50:26;;;;;;;0.90;0.52;;;;;;;;;;5091883;28;20024;-75
2022/04/20 07:52:57;;;;;;;1.38;0.60;;;;;;;;;;5092720;28;20028;-75
2022/04/20 07:55:26;;;;;;;1.10;0.70;;;;;;;;;;5091678;28;20392;-76
2022/04/20 07:57:54;;;;;;;1.60;1.00;;;;;;;;;;5091628;28;20400;-75
2022/04/20 08:00:22;;;;;;;2.03;0.70;;;;;;;;;;5091530;28;20028;-75
2022/04/20 08:02:50;;;;;;;2.60;0.80;;;;;;;;;;5092814;28;20361;-74
2022/04/20 08:05:19;;;;;;;1.70;0.80;;;;;;;;;;5093001;28;20122;-74
2022/04/20 08:07:46;;;;;;;1.17;0.70;;;;;;;;;;5092907;28;20386;-74
2022/04/20 08:10:14;;;;;;;1.30;0.70;;;;;;;;;;5093050;28;20038;-74
2022/04/20 08:12:43;;;;;;;1.75;0.65;;;;;;;;;;5091313;28;20114;-75
2022/04/20 08:15:10;;;;;;;1.63;0.80;;;;;;;;;;5092604;28;20123;-75
2022/04/20 08:17:38;;;;;;;3.20;0.88;;;;;;;;;;5092620;28;20013;-74
2022/04/20 08:20:06;;;;;;;2.85;0.90;;;;;;;;;;5092827;28;20103;-75
2022/04/20 08:22:33;;;;;;;2.55;1.20;;;;;;;;;;5091059;28;20020;-75
2022/04/20 08:25:05;;;;;;;3.22;0.93;;;;;;;;;;5092521;28;20498;-74
2022/04/20 08:27:32;;;;;;;3.15;1.23;;;;;;;;;;5092616;28;20384;-75
2022/04/20 08:29:59;;;;;;;2.78;1.00;;;;;;;;;;5092692;28;20453;-75
2022/04/20 08:32:26;;;;;;;2.42;0.77;;;;;;;;;;5092608;28;20016;-74
2022/04/20 08:34:54;;;;;;;2.72;1.00;;;;;;;;;;5092563;28;20020;-75
2022/04/20 08:37:21;;;;;;;2.85;1.15;;;;;;;;;;5092661;28;20474;-75
2022/04/20 08:39:48;;;;;;;5.13;1.50;;;;;;;;;;5091217;28;20373;-75
2022/04/20 08:42:19;;;;;;;3.55;1.20;;;;;;;;;;5092561;28;20091;-75
2022/04/20 08:44:47;;;;;;;;;;;;;;;;;;5092825;28;20107;-75
2022/04/20 08:47:21;;;;;;;3.50;1.58;;;;;;;;;;5092521;28;19987;-75
2022/04/20 08:49:50;;;;;;;2.80;2.13;;;;;;;;;;5091008;28;20148;-75
2022/04/20 08:55:03;;;;;;;8.95;3.20;;;;;;;;;;5092449;28;20522;-74
2022/04/20 08:57:32;;;;;;;4.53;3.15;;;;;;;;;;5092402;28;20388;-75
2022/04/20 09:00:00;;;;;;;4.35;2.30;;;;;;;;;;5090976;28;20503;-75
2022/04/20 09:02:28;;;;;;;4.85;3.25;;;;;;;;;;5090994;28;20524;-75
2022/04/20 09:04:56;;;;;;;4.97;2.95;;;;;;;;;;5090871;28;20051;-75
2022/04/20 09:07:25;;;;;;;3.97;2.63;;;;;;;;;;5092307;28;20402;-75
2022/04/20 09:09:52;;;;;;;5.28;2.88;;;;;;;;;;5092228;28;20028;-75
2022/04/20 09:12:20;;;;;;;5.68;2.40;;;;;;;;;;5090779;28;20107;-76
2022/04/20 09:14:50;;;;;;;5.03;3.25;;;;;;;;;;5090941;28;20081;-76
2022/04/20 09:17:17;;;;;;;;;;;;;;;;;;5092550;28;20016;-77
2022/04/20 09:19:51;;;;;;;4.03;2.70;;;;;;;;;;5090569;28;19904;-77
2022/04/20 09:22:32;;;;;;;4.43;3.20;;;;;;;;;;5090792;28;20028;-76
2022/04/20 09:25:05;;;;;;;5.20;2.42;;;;;;;;;;5091929;28;20020;-77
2022/04/20 09:27:33;;;;;;;5.40;2.65;;;;;;;;;;5090546;28;20032;-77
2022/04/20 09:30:01;;;;;;;7.15;2.75;;;;;;;;;;5091903;28;20013;-76
2022/04/20 09:32:36;;;;;;;3.92;2.42;;;;;;;;;;5091848;28;20099;-76
2022/04/20 09:35:05;;;;;;;5.13;2.75;;;;;;;;;;5092890;28;20017;-76
2022/04/20 09:37:32;;;;;;;6.95;2.97;;;;;;;;;;5095772;28;20023;-76
2022/04/20 09:40:01;;;;;;;4.05;2.72;;;;;;;;;;5095628;28;20020;-77
2022/04/20 09:42:29;;;;;;;4.55;3.10;;;;;;;;;;5095781;28;20494;-76
2022/04/20 09:44:59;;;;;;;4.75;2.63;;;;;;;;;;5095689;28;20016;-78
2022/04/20 09:50:23;;;;;;;6.05;2.95;;;;;;;;;;5095515;28;20146;-76
2022/04/20 09:52:54;;;;;;;5.47;2.50;;;;;;;;;;5094487;28;20055;-77
2022/04/20 09:55:29;;;;;;;5.82;2.58;;;;;;;;;;5095408;28;20019;-76
2022/04/20 09:58:19;;;;;;;5.15;2.75;;;;;;;;;;5095173;28;20036;-75
2022/04/20 10:00:50;;;;;;;4.60;3.10;;;;;;;;;;5081529;28;20028;-75
2022/04/20 10:03:46;;;;;;;6.18;2.72;;;;;;;;;;5095217;28;20024;-75
2022/04/20 10:06:13;;;;;;;6.28;3.42;;;;;;;;;;5078258;28;20115;-75
2022/04/20 10:08:40;;;;;;;5.68;3.03;;;;;;;;;;5093670;28;20523;-74
2022/04/20 10:11:13;;;;;;;5.13;3.30;;;;;;;;;;5095070;28;20024;-74
2022/04/20 10:13:40;;;;;;;5.30;2.88;;;;;;;;;;5095040;28;20031;-74
2022/04/20 10:16:12;;;;;;;5.38;3.10;;;;;;;;;;5095010;28;20020;-74
2022/04/20 10:18:45;;;;;;;6.70;2.80;;;;;;;;;;5093497;28;20425;-76
2022/04/20 10:21:13;;;;;;;5.40;2.35;;;;;;;;;;5094969;28;20066;-75
2022/04/20 10:23:43;;;;;;;4.82;2.28;;;;;;;;;;5095005;28;20444;-75
2022/04/20 10:26:10;;;;;;;5.00;2.45;;;;;;;;;;5093626;28;20024;-78
2022/04/20 10:28:44;;;;;;;4.30;2.20;;;;;;;;;;5094595;28;20028;-76
2022/04/20 10:31:16;;;;;;;5.60;2.20;;;;;;;;;;5094783;28;20024;-76
2022/04/20 10:33:43;;;;;;;2.83;2.22;;;;;;;;;;5093362;28;20047;-75
2022/04/20 10:36:12;;;;;;;2.75;1.90;;;;;;;;;;5093279;28;20027;-76
2022/04/20 10:38:40;;;;;;;3.65;1.70;;;;;;;;;;5093210;28;20514;-76
2022/04/20 10:41:10;;;;;;;3.42;1.85;;;;;;;;;;5094534;28;20063;-76
2022/04/20 10:43:42;;;;;;;3.38;2.13;;;;;;;;;;5093229;28;20032;-77
2022/04/20 10:46:11;;;;;;;5.25;2.28;;;;;;;;;;5094505;28;20077;-77
2022/04/20 10:49:02;;;;;;;4.20;1.60;;;;;;;;;;5094154;28;20400;-76
2022/04/20 10:51:32;;;;;;;2.28;1.58;;;;;;;;;;5093354;28;20083;-78
2022/04/20 10:54:20;;;;;;;4.18;1.77;;;;;;;;;;5092959;28;20153;-76
2022/04/20 10:56:50;;;;;;;4.30;2.50;;;;;;;;;;5076237;28;20051;-76
2022/04/20 10:59:18;;;;;;;;;;;;;;;;;;5094770;28;20024;-78
2022/04/20 11:02:02;;;;;;;3.65;1.90;;;;;;;;;;5094077;28;20268;-79
2022/04/20 11:04:51;;;;;;;3.28;1.50;;;;;;;;;;5092769;28;20024;-76
2022/04/20 11:07:19;;;;;;;2.85;1.70;;;;;;;;;;5092748;28;20024;-76
2022/04/20 11:09:49;;;;;;;4.05;1.15;;;;;;;;;;5094169;28;20016;-77
2022/04/20 11:21:07;;;;;;;1.02;0.70;;;;;;;;;;5093737;28;20038;-76
2022/04/20 11:23:53;;;;;;;1.60;0.80;;;;;;;;;;5093630;28;20093;-79
2022/04/20 11:26:20;;;;;;;1.42;0.80;;;;;;;;;;5093718;28;20540;-75
2022/04/20 11:28:51;;;;;;;2.00;0.98;;;;;;;;;;5092203;28;20020;-75
2022/04/20 11:31:18;;;;;;;3.35;0.73;;;;;;;;;;5092421;28;20431;-79
2022/04/20 11:33:45;;;;;;;2.03;0.70;;;;;;;;;;5093748;28;20380;-78
2022/04/20 11:36:16;;;;;;;0.95;0.60;;;;;;;;;;5093513;28;20019;-77
2022/04/20 11:38:44;;;;;;;1.40;0.82;;;;;;;;;;5093498;28;20032;-79
2022/04/20 11:41:12;;;;;;;2.63;0.90;;;;;;;;;;5092224;28;20054;-75
2022/04/20 11:43:40;;;;;;;1.52;0.60;;;;;;;;;;5092316;28;20031;-76
2022/04/20 11:46:08;;;;;;;1.25;0.60;;;;;;;;;;5093475;28;20023;-75
2022/04/20 11:48:39;;;;;;;1.40;0.38;;;;;;;;;;5091790;28;20500;-75
2022/04/20 11:51:09;;;;;;;4.57;0.60;;;;;;;;;;5093157;28;20044;-76
2022/04/20 11:53:37;;;;;;;;;;;;;;;;;;5092243;28;20107;-74
2022/04/20 11:56:05;;;;;;;0.88;0.40;;;;;;;;;;5093103;28;20412;-76
2022/04/20 11:58:32;;;;;;;1.23;0.80;;;;;;;;;;5092607;28;20028;-75
2022/04/20 12:01:01;;;;;;;1.42;0.60;;;;;;;;;;5092992;28;20024;-75
2022/04/20 12:03:41;;;;;;;1.52;0.60;;;;;;;;;;5091553;28;20369;-76
2022/04/20 12:06:10;;;;;;;1.42;0.40;;;;;;;;;;5091698;28;20455;-76
2022/04/20 12:08:41;;;;;;;2.75;0.65;;;;;;;;;;5091516;28;20060;-77
2022/04/20 12:11:09;;;;;;;1.33;0.63;;;;;;;;;;5091601;28;20118;-76
2022/04/20 12:13:37;;;;;;;1.95;0.60;;;;;;;;;;5092826;28;20031;-76
2022/04/20 12:16:08;;;;;;;1.60;0.60;;;;;;;;;;5092815;28;20016;-76
2022/04/20 12:18:41;;;;;;;2.22;0.98;;;;;;;;;;5092826;28;20389;-76
2022/04/20 12:21:28;;;;;;;1.30;0.63;;;;;;;;;;5091358;28;20056;-76
2022/04/20 12:23:56;;;;;;;1.70;0.57;;;;;;;;;;5091295;28;20028;-76
2022/04/20 12:26:29;;;;;;;1.50;0.60;;;;;;;;;;5091359;28;20031;-76
2022/04/20 12:29:00;;;;;;;2.25;0.60;;;;;;;;;;5091253;28;20069;-76
2022/04/20 12:31:28;;;;;;;1.83;0.68;;;;;;;;;;5091351;28;20077;-76
2022/04/20 12:34:08;;;;;;;1.77;0.80;;;;;;;;;;5091155;28;20023;-76
2022/04/20 12:36:51;;;;;;;3.15;0.60;;;;;;;;;;5092528;28;20016;-76
2022/04/20 12:39:38;;;;;;;2.63;0.70;;;;;;;;;;5092424;28;20031;-75
2022/04/20 12:42:13;;;;;;;5.00;2.10;;;;;;;;;;5092491;28;20039;-74
2022/04/20 12:44:51;;;;;;;4.72;0.95;;;;;;;;;;5092451;28;20024;-76
2022/04/20 12:47:19;;;;;;;7.03;1.67;;;;;;;;;;5091176;28;20081;-74
2022/04/20 12:49:53;;;;;;;2.67;0.80;;;;;;;;;;5090786;28;20100;-74
2022/04/20 12:52:30;;;;;;;1.75;0.60;;;;;;;;;;5092408;28;20016;-74
2022/04/20 12:55:05;;;;;;;2.00;0.52;;;;;;;;;;5092390;28;20048;-74
2022/04/20 13:03:05;;;;;;;3.45;0.60;;;;;;;;;;5092437;28;20092;-77
2022/04/20 13:05:36;;;;;;;1.65;0.63;;;;;;;;;;5092184;28;20535;-74
2022/04/20 13:08:02;;;;;;;;;;;;;;;;;;5091289;28;20511;-75
2022/04/20 13:10:32;;;;;;;1.67;0.70;;;;;;;;;;5094182;28;20417;-74
2022/04/20 13:13:00;;;;;;;2.05;0.80;;;;;;;;;;5094936;28;20027;-75
2022/04/20 13:15:29;;;;;;;2.40;0.88;;;;;;;;;;5094833;28;20441;-74
2022/04/20 13:17:57;;;;;;;1.60;0.80;;;;;;;;;;5094810;28;20104;-74
2022/04/20 13:20:28;;;;;;;1.10;0.63;;;;;;;;;;5096062;28;20017;-75
2022/04/20 13:22:55;;;;;;;1.50;0.80;;;;;;;;;;5094723;28;20054;-74
2022/04/20 13:28:08;;;;;;;0.75;0.40;;;;;;;;;;5096160;28;20039;-75
2022/04/20 13:30:39;;;;;;;1.38;0.65;;;;;;;;;;5095944;28;20095;-74
2022/04/20 13:33:13;;;;;;;1.27;0.70;;;;;;;;;;5095869;28;20020;-75
2022/04/20 13:35:45;;;;;;;0.85;0.40;;;;;;;;;;5094665;28;20438;-74
2022/04/20 13:38:12;;;;;;;2.38;0.60;;;;;;;;;;5095752;28;20028;-74
2022/04/20 13:40:40;;;;;;;1.83;0.60;;;;;;;;;;5095940;28;20027;-74
2022/04/20 13:43:08;;;;;;;1.45;0.80;;;;;;;;;;5095705;28;20528;-75
2022/04/20 13:45:35;;;;;;;3.13;0.90;;;;;;;;;;5094261;28;20111;-74
2022/04/20 13:48:02;;;;;;;3.38;0.60;;;;;;;;;;5094062;28;20078;-74
2022/04/20 13:50:30;;;;;;;1.75;0.77;;;;;;;;;;5095559;28;20384;-74
2022/04/20 13:52:58;;;;;;;2.78;0.75;;;;;;;;;;5095471;28;20044;-75
2022/04/20 13:55:25;;;;;;;1.65;0.50;;;;;;;;;;5101933;28;20072;-75
2022/04/20 13:57:52;;;;;;;1.67;0.73;;;;;;;;;;5105961;28;20031;-74
2022/04/20 14:00:19;;;;;;;1.33;0.50;;;;;;;;;;5106090;28;20021;-74
2022/04/20 14:02:47;;;;;;;2.78;0.70;;;;;;;;;;5107179;28;20083;-75
2022/04/20 14:05:14;;;;;;;2.45;0.70;;;;;;;;;;5105254;28;20028;-74
2022/04/20 14:07:41;;;;;;;0.88;0.52;;;;;;;;;;5106913;28;20069;-74
2022/04/20 14:10:10;;;;;;;1.85;0.32;;;;;;;;;;5104976;28;20020;-75
2022/04/20 14:12:37;;;;;;;1.23;0.30;;;;;;;;;;5105913;28;20459;-75
2022/04/20 14:15:05;;;;;;;0.73;0.40;;;;;;;;;;5105329;28;20020;-74
2022/04/20 14:17:32;;;;;;;3.13;0.93;;;;;;;;;;5107117;28;20031;-75
2022/04/20 14:19:59;;;;;;;1.75;0.30;;;;;;;;;;5104983;28;20028;-74
2022/04/20 14:22:26;;;;;;;2.28;0.40;;;;;;;;;;5106373;28;20418;-75
2022/04/20 14:32:09;;;;;;;1.77;0.45;;;;;;;;;;5105096;28;20024;-75
2022/04/20 14:33:11;;;;;;;1.80;0.40;;;;;;;;;;5107149;28;20086;-75
2022/04/20 14:35:38;;;;;;;1.52;0.40;;;;;;;;;;5107133;28;20032;-75
2022/04/20 14:38:05;;;;;;;0.77;0.38;;;;;;;;;;5105693;28;20028;-76
2022/04/20 14:40:32;;;;;;;2.08;0.30;;;;;;;;;;5105474;28;20024;-76
2022/04/20 14:43:00;;;;;;;3.38;0.50;;;;;;;;;;5106036;28;20030;-75
2022/04/20 14:45:28;;;;;;;1.35;0.50;;;;;;;;;;5104349;28;20030;-75
2022/04/20 14:48:00;;;;;;;2.35;0.45;;;;;;;;;;5105287;28;20059;-74
2022/04/20 14:50:27;;;;;;;1.00;0.38;;;;;;;;;;5104748;28;20047;-76
2022/04/20 14:52:55;;;;;;;0.52;0.50;;;;;;;;;;5106089;28;20053;-76
2022/04/20 14:55:22;;;;;;;0.70;0.35;;;;;;;;;;5103819;28;20092;-76
2022/04/20 14:57:50;;;;;;;3.40;0.50;;;;;;;;;;5102683;28;20027;-75
2022/04/20 15:00:17;;;;;;;1.30;0.63;;;;;;;;;;5101741;28;20027;-75
2022/04/20 15:02:48;;;;;;;1.63;0.40;;;;;;;;;;5100443;28;20017;-74
2022/04/20 15:05:15;;;;;;;1.70;0.45;;;;;;;;;;5098771;28;20020;-75
2022/04/20 15:07:44;;;;;;;1.98;0.40;;;;;;;;;;5098237;28;20437;-75
2022/04/20 15:10:11;;;;;;;1.60;0.40;;;;;;;;;;5099740;28;20057;-75
2022/04/20 15:12:39;;;;;;;2.83;0.93;;;;;;;;;;5100707;28;20016;-76
2022/04/20 15:15:08;;;;;;;2.47;0.50;;;;;;;;;;5104620;28;20020;-75
2022/04/20 15:17:36;;;;;;;1.55;0.40;;;;;;;;;;5098894;28;20046;-75
2022/04/20 15:20:04;;;;;;;0.95;0.40;;;;;;;;;;5097816;28;20028;-76
2022/04/20 15:22:32;;;;;;;1.00;0.52;;;;;;;;;;5099211;28;20488;-76
2022/04/20 15:24:59;;;;;;;0.98;0.60;;;;;;;;;;5100075;28;20028;-77
2022/04/20 15:27:26;;;;;;;1.27;0.45;;;;;;;;;;5100153;28;20039;-76
2022/04/20 15:29:53;;;;;;;1.45;0.52;;;;;;;;;;5099246;28;20506;-76
2022/04/20 15:32:22;;;;;;;2.30;0.40;;;;;;;;;;5101108;28;20096;-76
2022/04/20 15:34:49;;;;;;;2.35;0.63;;;;;;;;;;5098693;28;20026;-76
2022/04/20 15:37:17;;;;;;;0.85;0.40;;;;;;;;;;5099235;28;20020;-76